createdAt,value
2022-07-30T00:00:40.634Z,23.00
2022-07-30T00:05:38.670Z,23.00
2022-07-30T00:10:36.806Z,23.00
2022-07-30T00:15:36.354Z,22.90
2022-07-30T00:20:34.354Z,22.90
2022-07-30T00:25:33.574Z,22.80
2022-07-30T00:30:31.578Z,22.80
2022-07-30T00:35:31.270Z,22.70
2022-07-30T00:40:29.334Z,22.70
2022-07-30T00:45:27.714Z,22.60
2022-07-30T00:50:25.812Z,22.50
2022-07-30T00:55:25.762Z,22.40
2022-07-30T01:00:23.886Z,22.40
2022-07-30T01:05:22.374Z,22.40
2022-07-30T01:10:20.481Z,22.30
2022-07-30T01:15:20.623Z,22.30
2022-07-30T01:20:24.130Z,22.20
2022-07-30T01:25:31.938Z,22.10
2022-07-30T01:30:35.219Z,22.10
2022-07-30T01:35:35.441Z,22.10
2022-07-30T01:40:34.974Z,22.10
2022-07-30T01:45:35.733Z,22.10
2022-07-30T01:50:45.781Z,22.10
2022-07-30T01:55:45.816Z,22.00
2022-07-30T02:00:47.309Z,22.00
2022-07-30T02:05:51.377Z,21.90
2022-07-30T02:10:54.947Z,21.90
2022-07-30T02:15:58.964Z,21.80
2022-07-30T02:21:02.571Z,21.80
2022-07-30T02:26:06.183Z,21.80
2022-07-30T02:31:17.549Z,21.70
2022-07-30T02:36:17.978Z,21.70
2022-07-30T02:41:19.767Z,21.70
2022-07-30T02:46:20.886Z,21.70
2022-07-30T02:51:38.338Z,21.70
2022-07-30T02:56:38.754Z,21.60
2022-07-30T03:01:38.822Z,21.60
2022-07-30T03:06:38.070Z,21.50
2022-07-30T03:11:36.834Z,21.40
2022-07-30T03:16:38.384Z,21.40
2022-07-30T03:21:38.578Z,21.40
2022-07-30T03:26:38.313Z,21.30
2022-07-30T03:31:39.673Z,21.40
2022-07-30T03:36:41.543Z,21.20
2022-07-30T03:41:40.491Z,21.10
2022-07-30T03:46:45.849Z,21.00
2022-07-30T03:51:46.289Z,21.00
2022-07-30T03:56:47.201Z,21.10
2022-07-30T04:01:55.260Z,21.10
2022-07-30T04:07:11.278Z,21.10
2022-07-30T04:12:10.106Z,21.20
2022-07-30T04:17:13.885Z,21.20
2022-07-30T04:22:17.119Z,21.20
2022-07-30T04:27:15.947Z,21.30
2022-07-30T04:32:15.351Z,21.30
2022-07-30T04:37:27.183Z,21.40
2022-07-30T04:42:27.339Z,21.50
2022-07-30T04:47:34.849Z,21.50
2022-07-30T04:52:57.377Z,21.50
2022-07-30T04:58:02.103Z,21.50
2022-07-30T05:03:05.315Z,21.60
2022-07-30T05:08:04.827Z,21.70
2022-07-30T05:13:03.375Z,21.80
2022-07-30T05:18:01.410Z,21.90
2022-07-30T05:23:01.818Z,22.00
2022-07-30T05:28:00.114Z,22.00
2022-07-30T05:32:58.186Z,22.10
2022-07-30T05:38:01.556Z,22.10
2022-07-30T05:43:05.289Z,22.10
2022-07-30T05:48:03.514Z,22.20
2022-07-30T05:53:03.006Z,22.20
2022-07-30T05:58:36.264Z,22.40
2022-07-30T06:03:34.929Z,22.50
2022-07-30T06:08:54.551Z,22.60
2022-07-30T06:13:52.504Z,22.70
2022-07-30T06:18:51.079Z,22.70
2022-07-30T06:24:00.457Z,22.70
2022-07-30T06:29:08.323Z,22.70
2022-07-30T06:34:07.174Z,22.90
2022-07-30T06:39:11.197Z,23.00
2022-07-30T06:44:41.319Z,23.20
2022-07-30T06:49:55.905Z,23.20
2022-07-30T06:54:56.039Z,23.20
2022-07-30T07:00:20.641Z,23.20
2022-07-30T07:05:18.824Z,23.20
2022-07-30T07:10:21.415Z,23.30
2022-07-30T07:15:36.224Z,23.40
2022-07-30T07:20:37.258Z,23.50
2022-07-30T07:25:39.859Z,23.50
2022-07-30T07:30:37.944Z,23.60
2022-07-30T07:35:45.575Z,23.70
2022-07-30T07:40:53.445Z,23.80
2022-07-30T07:45:51.930Z,24.00
2022-07-30T07:50:50.331Z,24.00
2022-07-30T07:56:00.182Z,24.00
2022-07-30T08:00:58.483Z,24.00
2022-07-30T08:06:16.529Z,24.20
2022-07-30T08:11:38.363Z,24.40
2022-07-30T08:16:54.714Z,24.70
2022-07-30T08:22:12.671Z,24.90
2022-07-30T08:27:12.593Z,25.00
2022-07-30T08:32:10.660Z,25.10
2022-07-30T08:37:11.261Z,25.00
2022-07-30T08:42:14.837Z,25.20
2022-07-30T08:47:17.187Z,25.40
2022-07-30T08:52:54.083Z,25.70
2022-07-30T08:57:53.713Z,25.70
2022-07-30T09:02:51.721Z,25.80
2022-07-30T09:07:50.159Z,25.90
2022-07-30T09:12:53.990Z,26.00
2022-07-30T09:17:55.756Z,26.10
2022-07-30T09:22:57.582Z,26.20
2022-07-30T09:28:17.377Z,26.30
2022-07-30T09:33:38.149Z,26.30
2022-07-30T09:39:07.155Z,26.60
2022-07-30T09:44:30.753Z,26.80
2022-07-30T09:49:30.155Z,27.20
2022-07-30T09:54:51.368Z,27.40
2022-07-30T09:59:53.664Z,28.00
2022-07-30T10:04:53.180Z,29.10
2022-07-30T10:09:52.221Z,29.70
2022-07-30T10:14:56.130Z,30.00
2022-07-30T10:19:55.023Z,30.70
2022-07-30T10:25:27.675Z,30.70
2022-07-30T10:30:49.932Z,30.60
2022-07-30T10:35:49.525Z,30.30
2022-07-30T10:40:51.295Z,29.80
2022-07-30T10:45:59.397Z,29.80
2022-07-30T10:51:01.171Z,30.00
2022-07-30T10:56:18.068Z,30.30
2022-07-30T11:01:21.770Z,30.80
2022-07-30T11:06:29.199Z,31.10
2022-07-30T11:12:01.160Z,31.30
2022-07-30T11:17:05.913Z,31.60
2022-07-30T11:22:24.147Z,31.70
2022-07-30T11:27:42.300Z,31.40
2022-07-30T11:32:48.608Z,32.00
2022-07-30T11:38:02.119Z,32.10
2022-07-30T11:43:20.187Z,32.20
2022-07-30T11:48:21.829Z,32.00
2022-07-30T11:53:21.407Z,32.00
2022-07-30T11:58:28.512Z,32.20
2022-07-30T12:03:29.959Z,32.60
2022-07-30T12:08:35.175Z,32.90
2022-07-30T12:13:44.843Z,33.00
2022-07-30T12:18:47.200Z,32.90
2022-07-30T12:23:55.368Z,32.70
2022-07-30T12:28:54.963Z,32.80
2022-07-30T12:33:56.242Z,32.80
2022-07-30T12:38:57.970Z,32.80
2022-07-30T12:43:57.330Z,33.10
2022-07-30T12:49:02.764Z,33.20
2022-07-30T12:54:21.018Z,33.10
2022-07-30T12:59:23.630Z,33.00
2022-07-30T13:04:23.035Z,33.20
2022-07-30T13:09:22.458Z,33.10
2022-07-30T13:14:26.592Z,33.00
2022-07-30T13:19:28.042Z,33.10
2022-07-30T13:24:28.919Z,33.20
2022-07-30T13:29:26.896Z,33.20
2022-07-30T13:34:26.626Z,33.00
2022-07-30T13:39:24.579Z,32.80
2022-07-30T13:44:22.496Z,32.50
2022-07-30T13:49:20.531Z,32.20
2022-07-30T13:54:19.862Z,31.70
2022-07-30T13:59:17.859Z,31.70
2022-07-30T14:04:15.852Z,31.90
2022-07-30T14:09:13.813Z,32.10
2022-07-30T14:14:13.185Z,32.30
2022-07-30T14:19:23.370Z,32.40
2022-07-30T14:24:22.577Z,32.10
2022-07-30T14:29:21.897Z,31.70
2022-07-30T14:34:19.881Z,31.60
2022-07-30T14:39:17.850Z,31.50
2022-07-30T14:44:16.568Z,31.60
2022-07-30T14:49:16.733Z,31.70
2022-07-30T14:54:14.826Z,31.70
2022-07-30T14:59:12.922Z,31.20
2022-07-30T15:04:11.531Z,30.70
2022-07-30T15:09:11.405Z,30.60
2022-07-30T15:14:09.389Z,30.80
2022-07-30T15:19:07.417Z,31.10
2022-07-30T15:24:06.204Z,30.90
2022-07-30T15:29:06.820Z,30.40
2022-07-30T15:34:10.718Z,30.60
2022-07-30T15:39:08.761Z,30.90
2022-07-30T15:44:08.186Z,31.20
2022-07-30T15:49:07.122Z,31.40
2022-07-30T15:54:06.707Z,31.50
2022-07-30T15:59:07.190Z,31.00
2022-07-30T16:04:05.788Z,31.10
2022-07-30T16:09:04.936Z,31.00
2022-07-30T16:14:02.959Z,31.20
2022-07-30T16:19:02.319Z,31.20
2022-07-30T16:24:00.388Z,31.10
2022-07-30T16:28:58.456Z,30.70
2022-07-30T16:33:56.438Z,30.80
2022-07-30T16:38:55.810Z,31.00
2022-07-30T16:43:53.976Z,31.10
2022-07-30T16:48:52.231Z,31.00
2022-07-30T16:53:50.321Z,30.70
2022-07-30T16:58:49.729Z,30.60
2022-07-30T17:03:47.720Z,30.60
2022-07-30T17:08:45.775Z,30.20
2022-07-30T17:13:47.610Z,29.80
2022-07-30T17:18:46.913Z,29.60
2022-07-30T17:23:45.219Z,29.50
2022-07-30T17:28:43.364Z,29.40
2022-07-30T17:33:41.375Z,29.20
2022-07-30T17:38:40.725Z,29.00
2022-07-30T17:43:38.706Z,28.80
2022-07-30T17:48:36.736Z,28.50
2022-07-30T17:53:34.994Z,28.40
2022-07-30T17:58:35.405Z,28.30
2022-07-30T18:03:33.526Z,28.20
2022-07-30T18:08:33.125Z,28.00
2022-07-30T18:13:31.277Z,27.80
2022-07-30T18:18:30.718Z,27.60
2022-07-30T18:23:34.680Z,27.50
2022-07-30T18:28:33.226Z,27.20
2022-07-30T18:33:32.828Z,27.10
2022-07-30T18:38:30.901Z,27.00
2022-07-30T18:43:29.759Z,26.90
2022-07-30T18:48:27.881Z,26.70
2022-07-30T18:53:27.859Z,26.60
2022-07-30T18:58:26.010Z,26.40
2022-07-30T19:03:25.377Z,26.30
2022-07-30T19:08:23.475Z,26.20
2022-07-30T19:13:24.492Z,26.10
2022-07-30T19:18:22.934Z,26.00
2022-07-30T19:23:21.280Z,25.80
2022-07-30T19:28:19.355Z,25.80
2022-07-30T19:33:18.732Z,25.70
2022-07-30T19:38:23.950Z,25.70
2022-07-30T19:43:24.202Z,25.60
2022-07-30T19:48:28.616Z,25.50
2022-07-30T19:53:31.129Z,25.50
2022-07-30T19:58:30.203Z,25.40
2022-07-30T20:03:31.955Z,25.30
2022-07-30T20:08:30.162Z,25.30
2022-07-30T20:13:44.625Z,25.20
2022-07-30T20:18:47.410Z,25.10
2022-07-30T20:23:47.829Z,25.00
2022-07-30T20:28:52.376Z,24.80
2022-07-30T20:33:52.432Z,24.70
2022-07-30T20:38:50.612Z,24.50
2022-07-30T20:43:52.421Z,24.40
2022-07-30T20:48:54.384Z,24.20
2022-07-30T20:53:52.483Z,24.10
2022-07-30T20:58:50.922Z,24.00
2022-07-30T21:03:50.182Z,23.90
2022-07-30T21:08:49.592Z,23.70
2022-07-30T21:13:48.132Z,23.60
2022-07-30T21:18:49.266Z,23.60
2022-07-30T21:23:50.064Z,23.50
2022-07-30T21:28:48.154Z,23.50
2022-07-30T21:33:46.628Z,23.40
2022-07-30T21:38:45.328Z,23.20
2022-07-30T21:43:45.531Z,23.10
2022-07-30T21:48:44.216Z,23.00
2022-07-30T21:53:46.067Z,23.00
2022-07-30T21:58:46.127Z,23.00
2022-07-30T22:04:02.719Z,22.90
2022-07-30T22:09:18.948Z,22.90
2022-07-30T22:14:26.095Z,22.80
2022-07-30T22:19:25.950Z,22.70
2022-07-30T22:24:29.286Z,22.60
2022-07-30T22:29:34.090Z,22.50
2022-07-30T22:34:32.820Z,22.40
2022-07-30T22:39:31.607Z,22.40
2022-07-30T22:44:31.651Z,22.30
2022-07-30T22:49:45.448Z,22.30
2022-07-30T23:00:12.186Z,22.20
2022-07-30T23:05:11.719Z,22.10
2022-07-30T23:10:18.197Z,22.00
2022-07-30T23:12:30.761Z,22.20
2022-07-30T23:15:18.262Z,22.00
2022-07-30T23:20:17.922Z,21.90
2022-07-30T23:25:16.141Z,21.80
2022-07-30T23:30:14.689Z,21.70
2022-07-30T23:35:13.994Z,21.60
2022-07-30T23:40:12.855Z,21.60
2022-07-30T23:45:11.854Z,21.40
2022-07-30T23:50:10.738Z,21.40
2022-07-30T23:55:11.754Z,21.40
